createdAt,value
2022-09-10T00:01:17.734Z,94.4715597823007
2022-09-10T00:04:17.040Z,95.29286811199461
2022-09-10T00:07:16.789Z,95.31453761367818
2022-09-10T00:11:16.420Z,96.85105649696176
2022-09-10T00:14:19.807Z,96.71713242281713
2022-09-10T00:17:17.014Z,96.54880569580679
2022-09-10T00:21:19.170Z,98.1058156149817
2022-09-10T00:24:17.568Z,98.36641142464364
2022-09-10T00:27:17.545Z,99.09566578404065
2022-09-10T00:31:17.835Z,98.44429144139136
2022-09-10T00:34:18.495Z,98.79662241814138
2022-09-10T00:37:16.810Z,98.26322805097988
2022-09-10T00:41:17.435Z,98.3407000100397
2022-09-10T00:45:25.180Z,98.94627027598966
2022-09-10T00:47:22.642Z,98.2539356958383
2022-09-10T00:51:16.910Z,96.75169632076262
2022-09-10T00:54:20.919Z,96.57958915992268
2022-09-10T00:57:20.228Z,97.15976292060468
2022-09-10T01:01:17.658Z,97.09421716031386
2022-09-10T01:04:16.601Z,98.17695964581661
2022-09-10T01:07:18.000Z,97.89640427618453
2022-09-10T01:11:30.902Z,98.33518224325448
2022-09-10T01:14:31.523Z,99.24501941010521
2022-09-10T01:17:25.111Z,100
2022-09-10T01:21:23.060Z,100
2022-09-10T01:41:19.850Z,100
2022-09-10T01:44:42.359Z,100
2022-09-10T01:47:33.663Z,100
2022-09-10T01:51:27.011Z,100
2022-09-10T01:54:26.975Z,100
2022-09-10T01:57:30.491Z,100
2022-09-10T02:01:23.318Z,100
2022-09-10T02:04:20.675Z,100
2022-09-10T02:07:20.370Z,100
2022-09-10T02:11:16.698Z,100
2022-09-10T02:14:17.529Z,100
2022-09-10T02:31:16.687Z,100
2022-09-10T02:34:16.514Z,100
2022-09-10T02:37:17.439Z,100
2022-09-10T02:41:15.789Z,100
2022-09-10T02:44:17.453Z,100
2022-09-10T02:47:16.542Z,100
2022-09-10T02:51:16.217Z,100
2022-09-10T02:54:17.102Z,100
2022-09-10T02:57:16.815Z,100
2022-09-10T03:01:21.698Z,100
2022-09-10T03:04:17.938Z,100
2022-09-10T03:07:20.670Z,100
2022-09-10T03:11:17.959Z,100
2022-09-10T03:14:20.613Z,100
2022-09-10T03:17:16.428Z,100
2022-09-10T03:21:19.175Z,100
2022-09-10T03:24:16.867Z,100
2022-09-10T03:27:16.926Z,100
2022-09-10T03:31:17.477Z,100
2022-09-10T03:34:17.221Z,100
2022-09-10T03:37:16.915Z,100
2022-09-10T03:41:16.483Z,100
2022-09-10T03:44:17.621Z,100
2022-09-10T03:47:16.813Z,100
2022-09-10T03:51:16.842Z,100
2022-09-10T03:54:16.898Z,100
2022-09-10T03:57:17.979Z,100
2022-09-10T04:01:17.468Z,100
2022-09-10T04:04:17.032Z,100
2022-09-10T04:07:17.013Z,100
2022-09-10T04:11:15.999Z,100
2022-09-10T04:14:16.270Z,100
2022-09-10T04:17:16.920Z,100
2022-09-10T04:21:16.806Z,100
2022-09-10T04:24:17.257Z,100
2022-09-10T04:27:17.232Z,100
2022-09-10T04:31:19.385Z,100
2022-09-10T04:34:18.850Z,100
2022-09-10T04:37:19.923Z,100
2022-09-10T04:41:18.441Z,100
2022-09-10T04:44:20.821Z,100
2022-09-10T04:47:17.666Z,100
2022-09-10T04:51:18.609Z,100
2022-09-10T04:54:17.162Z,100
2022-09-10T04:57:17.229Z,100
2022-09-10T05:01:17.614Z,100
2022-09-10T05:04:17.222Z,100
2022-09-10T05:07:17.253Z,100
2022-09-10T05:11:16.166Z,100
2022-09-10T05:14:17.401Z,100
2022-09-10T05:17:16.375Z,100
2022-09-10T05:21:16.381Z,100
2022-09-10T05:24:17.040Z,100
2022-09-10T05:27:17.903Z,100
2022-09-10T05:31:17.609Z,100
2022-09-10T05:34:16.478Z,100
2022-09-10T05:37:17.004Z,100
2022-09-10T05:41:16.272Z,100
2022-09-10T05:44:17.770Z,100
2022-09-10T05:47:16.610Z,100
2022-09-10T05:51:18.753Z,100
2022-09-10T05:54:18.389Z,100
2022-09-10T05:57:18.715Z,100
2022-09-10T06:01:24.759Z,100
2022-09-10T06:04:20.250Z,100
2022-09-10T06:07:19.178Z,100
2022-09-10T06:11:16.773Z,100
2022-09-10T06:14:18.056Z,100
2022-09-10T06:17:18.676Z,100
2022-09-10T06:21:18.346Z,100
2022-09-10T06:24:17.554Z,100
2022-09-10T06:27:17.977Z,100
2022-09-10T06:31:18.341Z,100
2022-09-10T06:34:19.529Z,100
2022-09-10T06:37:16.780Z,100
2022-09-10T06:41:16.455Z,100
2022-09-10T06:44:16.901Z,100
2022-09-10T06:48:06.809Z,100
2022-09-10T06:51:16.507Z,100
2022-09-10T06:54:16.565Z,100
2022-09-10T06:57:16.699Z,100
2022-09-10T07:01:18.214Z,100
2022-09-10T07:04:16.299Z,100
2022-09-10T07:07:16.342Z,100
2022-09-10T07:11:16.112Z,100
2022-09-10T07:14:16.406Z,100
2022-09-10T07:17:16.161Z,100
2022-09-10T07:21:17.747Z,100
2022-09-10T07:24:16.856Z,100
2022-09-10T07:27:16.529Z,100
2022-09-10T07:31:23.174Z,100
2022-09-10T07:34:21.663Z,100
2022-09-10T07:37:20.118Z,100
2022-09-10T07:41:16.758Z,100
2022-09-10T07:44:18.415Z,100
2022-09-10T07:47:17.754Z,100
2022-09-10T07:51:19.626Z,100
2022-09-10T07:54:17.802Z,100
2022-09-10T07:57:17.362Z,100
2022-09-10T08:01:16.809Z,100
2022-09-10T08:04:17.046Z,100
2022-09-10T08:07:19.606Z,100
2022-09-10T08:11:18.634Z,100
2022-09-10T08:14:16.856Z,100
2022-09-10T08:17:17.102Z,100
2022-09-10T08:21:17.919Z,100
2022-09-10T08:24:44.957Z,100
2022-09-10T08:27:16.793Z,100
2022-09-10T08:31:16.958Z,100
2022-09-10T08:34:17.428Z,99.63282694229575
2022-09-10T08:37:17.177Z,98.27956339732752
2022-09-10T08:41:26.916Z,98.58251371072664
2022-09-10T08:44:28.906Z,94.78528305994625
2022-09-10T08:47:26.199Z,95.2458916383987
2022-09-10T08:51:25.990Z,92.75137995370346
2022-09-10T08:54:23.342Z,95.07288781412875
2022-09-10T08:57:25.464Z,90.97243883447786
2022-09-10T09:01:30.875Z,90.03276621240013
2022-09-10T09:04:33.216Z,88.09966267129882
2022-09-10T09:07:20.887Z,86.700126733387
2022-09-10T09:11:32.789Z,84.4362806411678
2022-09-10T09:14:36.892Z,83.97571936541571
2022-09-10T09:17:35.549Z,82.56144551890004
2022-09-10T09:21:23.607Z,82.51016599967535
2022-09-10T09:24:22.583Z,80.34683697650229
2022-09-10T09:27:18.539Z,80.13049437280021
2022-09-10T09:31:21.770Z,79.3160716364772
2022-09-10T09:34:27.317Z,79.25505830663154
2022-09-10T09:37:19.868Z,76.07426881044769
2022-09-10T09:41:24.124Z,75.39013235946578
2022-09-10T09:44:25.992Z,74.75047643010024
2022-09-10T09:47:16.968Z,73.25766780292521
2022-09-10T09:51:18.496Z,73.74286269264331
2022-09-10T09:55:02.981Z,70.72772686844661
2022-09-10T09:57:19.705Z,67.8597150633915
2022-09-10T10:01:21.035Z,66.30637464849713
2022-09-10T10:04:42.246Z,65.43487670441952
2022-09-10T10:07:24.821Z,66.11844773198274
2022-09-10T10:11:19.891Z,62.84385949572295
2022-09-10T10:14:34.614Z,66.32745315385584
2022-09-10T10:17:37.014Z,58.74947980374334
2022-09-10T10:21:19.121Z,60.90682006562004
2022-09-10T10:24:29.884Z,59.42759008650979
2022-09-10T10:27:20.587Z,56.35961804397858
2022-09-10T10:31:50.857Z,57.00747737354287
2022-09-10T10:34:39.411Z,55.72361744163289
2022-09-10T10:37:31.584Z,54.91572775161065
2022-09-10T10:41:50.167Z,55.84459593247122
2022-09-10T10:44:30.356Z,55.525561901472756
2022-09-10T10:47:34.140Z,55.99240122368987
2022-09-10T10:51:30.128Z,55.71901037796065
2022-09-10T10:54:32.054Z,53.38931593674441
2022-09-10T10:57:28.095Z,52.01653017740776
2022-09-10T11:01:22.494Z,52.54378660601654
2022-09-10T11:04:31.089Z,52.229422462845854
2022-09-10T11:07:25.112Z,50.62789114521719
2022-09-10T11:11:20.250Z,49.9867801367885
2022-09-10T11:14:25.271Z,48.939202670838846
2022-09-10T11:17:25.059Z,47.29622268722266
2022-09-10T11:21:23.815Z,48.98079950207871
2022-09-10T11:24:23.038Z,49.02396625427707
2022-09-10T11:27:22.160Z,48.46580437842808
2022-09-10T11:31:28.080Z,47.54849033934323
2022-09-10T11:34:25.150Z,46.395458711622744
2022-09-10T11:37:25.905Z,47.39023269726035
2022-09-10T11:41:20.760Z,44.94908543665165
2022-09-10T11:44:36.869Z,45.31392439502293
2022-09-10T11:47:22.647Z,45.9802037230188
2022-09-10T11:51:25.566Z,45.749747343703504
2022-09-10T11:54:34.967Z,46.18620477667993
2022-09-10T11:57:30.491Z,46.68280677004466
2022-09-10T12:01:38.833Z,45.72439679429148
2022-09-10T12:04:39.227Z,47.21700026145642
2022-09-10T12:07:34.275Z,46.34389504253404
2022-09-10T12:11:25.484Z,44.871830163474414
2022-09-10T12:14:47.430Z,46.883608234159375
2022-09-10T12:17:22.930Z,44.41928808342542
2022-09-10T12:21:28.674Z,44.63766560588855
2022-09-10T12:24:26.873Z,42.86146317426555
2022-09-10T12:27:19.355Z,42.8496212206196
2022-09-10T12:31:19.647Z,41.91743707377837
2022-09-10T12:34:19.077Z,40.88527158290073
2022-09-10T12:37:24.264Z,41.59910716394464
2022-09-10T12:51:29.958Z,43.65560909604169
2022-09-10T12:54:37.155Z,43.495995616010745
2022-09-10T12:57:33.898Z,44.33200465222844
2022-09-10T13:01:36.118Z,44.337979259550956
2022-09-10T13:04:25.286Z,44.2029063378634
2022-09-10T13:07:23.663Z,44.055514351123364
2022-09-10T13:11:22.282Z,44.04942689254133
2022-09-10T13:14:22.294Z,44.37812038706955
2022-09-10T13:17:38.457Z,45.67127929296346
2022-09-10T13:31:25.753Z,43.99473090882268
2022-09-10T13:34:57.028Z,44.34774029588627
2022-09-10T13:37:37.183Z,45.030075433887795
2022-09-10T13:42:56.836Z,45.731068840779365
2022-09-10T13:44:45.363Z,45.578294416521395
2022-09-10T13:47:24.065Z,45.64342852763559
2022-09-10T13:51:27.155Z,44.56112188686597
2022-09-10T13:54:29.567Z,44.11970870931428
2022-09-10T13:57:25.382Z,44.667820144254364
2022-09-10T14:01:18.970Z,44.450862236583866
2022-09-10T14:04:25.031Z,43.667326856395555
2022-09-10T14:07:21.303Z,43.38463208627628
2022-09-10T14:11:23.117Z,42.488965685839595
2022-09-10T14:14:25.770Z,43.26068227682414
2022-09-10T14:17:22.816Z,42.24750838116233
2022-09-10T14:21:19.292Z,42.100120891629736
2022-09-10T14:24:31.151Z,42.029435094700226
2022-09-10T14:27:24.179Z,42.24132949745893
2022-09-10T14:31:26.803Z,41.317163696617044
2022-09-10T14:34:31.025Z,42.20581083206448
2022-09-10T14:37:32.868Z,42.6938000047444
2022-09-10T14:41:20.617Z,43.1465652551179
2022-09-10T14:44:30.790Z,43.3290314672896
2022-09-10T14:47:28.488Z,42.82896728479855
2022-09-10T14:51:21.308Z,43.74565429932026
2022-09-10T14:54:18.640Z,43.95652169933644
2022-09-10T14:57:18.213Z,44.80791897937364
2022-09-10T15:01:17.745Z,44.66130827244605
2022-09-10T15:04:20.891Z,45.282599615982775
2022-09-10T15:07:17.456Z,46.81925878531108
2022-09-10T15:11:20.274Z,46.618733320504454
2022-09-10T15:14:18.430Z,46.999226197862235
2022-09-10T15:17:17.481Z,46.87528218588909
2022-09-10T15:21:19.088Z,47.21468213769586
2022-09-10T15:24:21.135Z,48.73881146387292
2022-09-10T15:27:19.340Z,49.24319185302993
2022-09-10T15:31:19.492Z,48.7693091343386
2022-09-10T15:34:17.685Z,50.133529845129026
2022-09-10T15:37:18.740Z,48.903422915885365
2022-09-10T15:41:17.894Z,47.40309519702855
2022-09-10T15:44:16.997Z,47.033267738726785
2022-09-10T15:47:18.005Z,47.65544735758876
2022-09-10T15:51:19.504Z,47.15136033600616
2022-09-10T15:54:17.227Z,48.283210365821894
2022-09-10T15:57:16.698Z,48.42961788142726
2022-09-10T16:01:18.586Z,47.77788751835959
2022-09-10T16:04:16.746Z,47.965791750362634
2022-09-10T16:07:17.843Z,48.48040350369674
2022-09-10T16:11:18.153Z,48.99419588477813
2022-09-10T16:14:20.012Z,49.75520220597324
2022-09-10T16:17:18.831Z,49.935482164548304
2022-09-10T16:21:20.234Z,50.4552277524251
2022-09-10T16:24:18.356Z,50.67812901656307
2022-09-10T16:27:18.722Z,51.09813835855838
2022-09-10T16:31:18.877Z,51.66558609998612
2022-09-10T16:34:20.619Z,52.47347531490192
2022-09-10T16:37:19.279Z,52.66565888316443
2022-09-10T16:41:18.495Z,52.08353096558338
2022-09-10T16:44:19.571Z,51.68497608429248
2022-09-10T16:47:20.142Z,51.554856424681425
2022-09-10T16:51:19.516Z,51.308987821823685
2022-09-10T16:54:21.368Z,52.070656626326
2022-09-10T16:57:18.810Z,52.41999391791106
2022-09-10T17:01:17.867Z,52.36527647743381
2022-09-10T17:04:23.396Z,51.5808420270514
2022-09-10T17:07:18.427Z,51.479318972429624
2022-09-10T17:11:19.069Z,52.54932945315666
2022-09-10T17:14:19.011Z,52.94451620249204
2022-09-10T17:17:17.738Z,52.987697038874636
2022-09-10T17:21:16.990Z,53.36913859345946
2022-09-10T17:24:18.819Z,54.11490191261129
2022-09-10T17:27:22.405Z,54.874285726521876
2022-09-10T17:31:16.433Z,54.43749167668184
2022-09-10T17:34:17.953Z,54.451922489124506
2022-09-10T17:37:18.745Z,54.607162650596685
2022-09-10T17:41:18.337Z,55.39545538060819
2022-09-10T17:51:20.659Z,55.51374551229512
2022-09-10T17:54:19.449Z,55.534438646269855
2022-09-10T17:57:17.857Z,54.899354962152266
2022-09-10T18:01:23.359Z,55.186359196805554
2022-09-10T18:04:19.628Z,54.78045631361904
2022-09-10T18:07:18.353Z,54.7477361993441
2022-09-10T18:11:21.395Z,55.14549267104049
2022-09-10T18:14:20.210Z,55.66426702202262
2022-09-10T18:17:19.065Z,55.526108545781646
2022-09-10T18:21:19.730Z,56.28248118451231
2022-09-10T18:24:19.823Z,56.50086377934234
2022-09-10T18:27:17.152Z,57.25806317420715
2022-09-10T18:31:19.914Z,58.05573923845755
2022-09-10T18:34:23.034Z,58.47611359612451
2022-09-10T18:37:18.432Z,59.00179514736716
2022-09-10T18:41:20.179Z,59.66416735328431
2022-09-10T18:44:21.232Z,59.84422405457338
2022-09-10T18:47:41.226Z,60.604633213031015
2022-09-10T18:51:19.837Z,61.09714030331771
2022-09-10T18:54:17.933Z,61.80839424042544
2022-09-10T18:57:18.101Z,62.77782313238191
2022-09-10T19:01:19.227Z,63.60474929989148
2022-09-10T19:04:21.248Z,63.97258449523861
2022-09-10T19:07:18.581Z,64.24817224358819
2022-09-10T19:11:19.927Z,64.79602356303576
2022-09-10T19:14:21.874Z,65.5314187930855
2022-09-10T19:17:21.835Z,65.4933821745831
2022-09-10T19:21:19.531Z,66.47957892732352
2022-09-10T19:24:32.792Z,66.81766636741126
2022-09-10T19:27:18.620Z,67.82369818664162
2022-09-10T19:31:21.862Z,69.03616537212174
2022-09-10T19:34:20.562Z,68.74306024394568
2022-09-10T19:37:20.099Z,69.97737071727656
2022-09-10T19:41:22.576Z,70.86710385059781
2022-09-10T19:44:20.929Z,71.27536259612903
2022-09-10T19:47:19.294Z,71.59065801602362
2022-09-10T19:51:19.607Z,71.14527782761017
2022-09-10T19:54:19.178Z,70.91762062272728
2022-09-10T19:57:18.935Z,71.17587550427491
2022-09-10T20:01:20.873Z,71.48824735036011
2022-09-10T20:04:18.894Z,71.08534850847694
2022-09-10T20:07:18.415Z,70.54107110720068
2022-09-10T20:11:20.494Z,70.21617895207059
2022-09-10T20:14:19.831Z,70.88464449228812
2022-09-10T20:17:19.594Z,71.03514828850959
2022-09-10T20:21:20.327Z,72.23059466671023
2022-09-10T20:24:18.903Z,72.5485655472554
2022-09-10T20:27:19.973Z,71.94308382837484
2022-09-10T20:31:20.466Z,71.51783905618662
2022-09-10T20:34:21.581Z,72.33077263668933
2022-09-10T20:37:18.279Z,72.5096899468783
2022-09-10T20:41:18.071Z,74.62286524115532
2022-09-10T20:44:18.537Z,74.60973797748898
2022-09-10T20:47:19.143Z,75.44952231961796
2022-09-10T20:51:20.324Z,75.49839073951928
2022-09-10T20:54:19.148Z,75.99006421408995
2022-09-10T20:57:18.394Z,76.1692583150828
2022-09-10T21:01:22.917Z,75.58842525695111
2022-09-10T21:04:19.057Z,75.79691905547811
2022-09-10T21:07:19.195Z,76.974064629459
2022-09-10T21:11:20.682Z,77.9443062060994
2022-09-10T21:14:19.051Z,78.81768485395568
2022-09-10T21:17:18.313Z,80.25401394429488
2022-09-10T21:21:19.940Z,79.61442002137936
2022-09-10T21:24:21.484Z,81.2661413870623
2022-09-10T21:27:18.064Z,81.7139684651483
2022-09-10T21:31:19.664Z,82.42772094265794
2022-09-10T21:34:17.906Z,82.92178512595241
2022-09-10T21:37:20.518Z,83.30513230004885
2022-09-10T21:41:22.753Z,83.43066896794103
2022-09-10T21:51:21.012Z,85.02995704939492
2022-09-10T21:54:21.376Z,84.132352445083
2022-09-10T21:57:18.656Z,83.6001688594419
2022-09-10T22:01:21.796Z,84.94552643563311
2022-09-10T22:04:22.191Z,85.67778870478206
2022-09-10T22:07:17.301Z,86.71541078503567
2022-09-10T22:11:19.154Z,88.22342323463279
2022-09-10T22:14:18.753Z,88.51072770324177
2022-09-10T22:17:17.893Z,88.66672995593595
2022-09-10T22:21:17.023Z,88.46701091770701
2022-09-10T22:24:20.075Z,88.09285800410791
2022-09-10T22:27:17.928Z,88.77187197390063
2022-09-10T22:31:21.950Z,87.99970286674503
2022-09-10T22:34:18.884Z,87.52603566504932
2022-09-10T22:37:18.866Z,87.86761405475485
2022-09-10T22:41:16.597Z,87.00858413150247
2022-09-10T22:44:18.466Z,86.28341799342012
2022-09-10T22:47:16.272Z,86.16843268084412
2022-09-10T22:51:18.585Z,86.1366051379664
2022-09-10T22:54:17.281Z,86.8900083122305
2022-09-10T22:57:17.875Z,86.42641872434147
2022-09-10T23:01:17.831Z,85.85795764751153
2022-09-10T23:04:17.541Z,85.25833863945148
2022-09-10T23:07:17.058Z,86.30660413346463
2022-09-10T23:11:19.135Z,87.91021792206284
2022-09-10T23:14:19.099Z,88.38307774530188
2022-09-10T23:17:21.892Z,87.55826969105807
2022-09-10T23:21:17.318Z,88.41430505853265
2022-09-10T23:24:19.354Z,88.90075882459655
2022-09-10T23:27:16.648Z,88.62299745581745
2022-09-10T23:31:17.925Z,88.47780595268047
2022-09-10T23:34:18.506Z,88.52315900669264
2022-09-10T23:37:17.533Z,88.87046722104027
2022-09-10T23:41:17.284Z,88.26396984114884
2022-09-10T23:44:16.999Z,87.35871987777087
2022-09-10T23:47:16.366Z,87.17704617110704
2022-09-10T23:51:19.434Z,88.62434121984315
2022-09-10T23:54:17.595Z,89.55768899812878
2022-09-10T23:57:17.649Z,90.20719870314146
